sensor_id;sensor_type;location;lat;lon;timestamp;temperature;humidity
25024;DHT22;13033;50.936;5.334;2023-07-29T00:01:31;20.90;99.90
25024;DHT22;13033;50.936;5.334;2023-07-29T00:03:57;21.10;99.90
25024;DHT22;13033;50.936;5.334;2023-07-29T00:06:23;21.20;99.90
25024;DHT22;13033;50.936;5.334;2023-07-29T00:08:49;21.00;99.90
25024;DHT22;13033;50.936;5.334;2023-07-29T00:11:15;21.00;99.90
25024;DHT22;13033;50.936;5.334;2023-07-29T00:13:40;21.00;99.90
25024;DHT22;13033;50.936;5.334;2023-07-29T00:16:06;20.90;99.90
25024;DHT22;13033;50.936;5.334;2023-07-29T00:18:32;20.90;99.90
25024;DHT22;13033;50.936;5.334;2023-07-29T00:20:58;20.90;99.90
25024;DHT22;13033;50.936;5.334;2023-07-29T00:23:24;20.90;99.90
25024;DHT22;13033;50.936;5.334;2023-07-29T00:25:49;20.80;99.90
25024;DHT22;13033;50.936;5.334;2023-07-29T00:28:15;20.70;99.90
25024;DHT22;13033;50.936;5.334;2023-07-29T00:30:41;20.70;99.90
25024;DHT22;13033;50.936;5.334;2023-07-29T00:33:06;20.70;99.90
25024;DHT22;13033;50.936;5.334;2023-07-29T00:35:33;20.80;99.90
25024;DHT22;13033;50.936;5.334;2023-07-29T00:37:58;20.80;99.90
25024;DHT22;13033;50.936;5.334;2023-07-29T00:40:24;20.90;99.90
25024;DHT22;13033;50.936;5.334;2023-07-29T00:42:50;20.90;99.90
25024;DHT22;13033;50.936;5.334;2023-07-29T00:45:16;20.90;99.90
25024;DHT22;13033;50.936;5.334;2023-07-29T00:47:42;21.00;99.90
25024;DHT22;13033;50.936;5.334;2023-07-29T00:50:11;20.90;99.90
25024;DHT22;13033;50.936;5.334;2023-07-29T00:52:37;21.00;99.90
25024;DHT22;13033;50.936;5.334;2023-07-29T00:55:04;20.90;99.90
25024;DHT22;13033;50.936;5.334;2023-07-29T00:57:30;21.10;99.90
25024;DHT22;13033;50.936;5.334;2023-07-29T00:59:56;21.00;99.90
25024;DHT22;13033;50.936;5.334;2023-07-29T01:02:22;20.90;99.90
25024;DHT22;13033;50.936;5.334;2023-07-29T01:04:54;20.80;99.90
25024;DHT22;13033;50.936;5.334;2023-07-29T01:09:57;20.70;99.90
25024;DHT22;13033;50.936;5.334;2023-07-29T01:13:03;20.80;99.90
25024;DHT22;13033;50.936;5.334;2023-07-29T01:18:26;20.50;99.90
25024;DHT22;13033;50.936;5.334;2023-07-29T01:20:54;20.50;99.90
25024;DHT22;13033;50.936;5.334;2023-07-29T01:23:24;20.50;99.90
25024;DHT22;13033;50.936;5.334;2023-07-29T01:25:50;20.50;99.90
25024;DHT22;13033;50.936;5.334;2023-07-29T01:28:16;20.70;99.90
25024;DHT22;13033;50.936;5.334;2023-07-29T01:30:43;20.80;99.90
25024;DHT22;13033;50.936;5.334;2023-07-29T01:33:20;20.80;99.90
25024;DHT22;13033;50.936;5.334;2023-07-29T01:35:58;20.90;99.90
25024;DHT22;13033;50.936;5.334;2023-07-29T01:38:33;20.90;99.90
25024;DHT22;13033;50.936;5.334;2023-07-29T01:41:07;21.00;99.90
25024;DHT22;13033;50.936;5.334;2023-07-29T01:43:33;21.10;99.90
25024;DHT22;13033;50.936;5.334;2023-07-29T01:46:00;21.00;99.90
25024;DHT22;13033;50.936;5.334;2023-07-29T01:48:26;20.90;99.90
25024;DHT22;13033;50.936;5.334;2023-07-29T01:50:54;20.90;99.90
25024;DHT22;13033;50.936;5.334;2023-07-29T01:53:19;20.80;99.90
25024;DHT22;13033;50.936;5.334;2023-07-29T01:55:45;20.60;99.90
25024;DHT22;13033;50.936;5.334;2023-07-29T01:58:11;20.50;99.90
25024;DHT22;13033;50.936;5.334;2023-07-29T02:00:37;20.40;99.90
25024;DHT22;13033;50.936;5.334;2023-07-29T02:03:02;20.30;99.90
25024;DHT22;13033;50.936;5.334;2023-07-29T02:05:28;20.20;99.90
25024;DHT22;13033;50.936;5.334;2023-07-29T02:07:54;20.20;99.90
25024;DHT22;13033;50.936;5.334;2023-07-29T02:10:19;20.10;99.90
25024;DHT22;13033;50.936;5.334;2023-07-29T02:12:45;20.20;99.90
25024;DHT22;13033;50.936;5.334;2023-07-29T02:15:11;20.20;99.90
25024;DHT22;13033;50.936;5.334;2023-07-29T02:17:37;20.10;99.90
25024;DHT22;13033;50.936;5.334;2023-07-29T02:20:03;20.00;99.90
25024;DHT22;13033;50.936;5.334;2023-07-29T02:22:29;20.00;99.90
25024;DHT22;13033;50.936;5.334;2023-07-29T02:24:55;20.10;99.90
25024;DHT22;13033;50.936;5.334;2023-07-29T02:27:21;20.10;99.90
25024;DHT22;13033;50.936;5.334;2023-07-29T02:29:47;20.20;99.90
25024;DHT22;13033;50.936;5.334;2023-07-29T02:32:12;20.10;99.90
25024;DHT22;13033;50.936;5.334;2023-07-29T02:34:38;20.00;99.90
25024;DHT22;13033;50.936;5.334;2023-07-29T02:37:04;20.10;99.90
25024;DHT22;13033;50.936;5.334;2023-07-29T02:39:30;20.00;99.90
25024;DHT22;13033;50.936;5.334;2023-07-29T02:41:56;20.00;99.90
25024;DHT22;13033;50.936;5.334;2023-07-29T02:44:23;19.80;99.90
25024;DHT22;13033;50.936;5.334;2023-07-29T02:46:49;19.70;99.90
25024;DHT22;13033;50.936;5.334;2023-07-29T02:49:15;19.90;99.90
25024;DHT22;13033;50.936;5.334;2023-07-29T02:51:40;19.90;99.90
25024;DHT22;13033;50.936;5.334;2023-07-29T02:54:06;19.90;99.90
25024;DHT22;13033;50.936;5.334;2023-07-29T02:56:32;19.90;99.90
25024;DHT22;13033;50.936;5.334;2023-07-29T02:58:57;19.70;99.90
25024;DHT22;13033;50.936;5.334;2023-07-29T03:01:23;19.80;99.90
25024;DHT22;13033;50.936;5.334;2023-07-29T03:03:50;19.80;99.90
25024;DHT22;13033;50.936;5.334;2023-07-29T03:06:16;19.40;99.90
25024;DHT22;13033;50.936;5.334;2023-07-29T03:08:42;19.30;99.90
25024;DHT22;13033;50.936;5.334;2023-07-29T03:11:09;19.30;99.90
25024;DHT22;13033;50.936;5.334;2023-07-29T03:13:36;19.40;99.90
25024;DHT22;13033;50.936;5.334;2023-07-29T03:16:20;19.40;99.90
25024;DHT22;13033;50.936;5.334;2023-07-29T03:18:45;19.40;99.90
25024;DHT22;13033;50.936;5.334;2023-07-29T03:21:11;19.20;99.90
25024;DHT22;13033;50.936;5.334;2023-07-29T03:23:38;19.10;99.90
25024;DHT22;13033;50.936;5.334;2023-07-29T03:26:04;19.10;99.90
25024;DHT22;13033;50.936;5.334;2023-07-29T03:28:42;19.10;99.90
25024;DHT22;13033;50.936;5.334;2023-07-29T03:31:08;19.20;99.90
25024;DHT22;13033;50.936;5.334;2023-07-29T03:33:34;19.10;99.90
25024;DHT22;13033;50.936;5.334;2023-07-29T03:36:00;19.00;99.90
25024;DHT22;13033;50.936;5.334;2023-07-29T03:38:25;19.10;99.90
25024;DHT22;13033;50.936;5.334;2023-07-29T03:40:51;19.10;99.90
25024;DHT22;13033;50.936;5.334;2023-07-29T03:43:17;19.30;99.90
25024;DHT22;13033;50.936;5.334;2023-07-29T03:45:42;19.30;99.90
25024;DHT22;13033;50.936;5.334;2023-07-29T03:48:08;19.20;99.90
25024;DHT22;13033;50.936;5.334;2023-07-29T03:50:35;19.20;99.90
25024;DHT22;13033;50.936;5.334;2023-07-29T03:53:04;18.90;99.90
25024;DHT22;13033;50.936;5.334;2023-07-29T03:55:31;18.80;99.90
25024;DHT22;13033;50.936;5.334;2023-07-29T03:57:58;18.70;99.90
25024;DHT22;13033;50.936;5.334;2023-07-29T04:00:24;18.70;99.90
25024;DHT22;13033;50.936;5.334;2023-07-29T04:02:50;18.70;99.90
25024;DHT22;13033;50.936;5.334;2023-07-29T04:05:16;18.90;99.90
25024;DHT22;13033;50.936;5.334;2023-07-29T04:07:41;18.80;99.90
25024;DHT22;13033;50.936;5.334;2023-07-29T04:10:07;18.90;99.90
25024;DHT22;13033;50.936;5.334;2023-07-29T04:12:33;18.80;99.90
25024;DHT22;13033;50.936;5.334;2023-07-29T04:14:59;18.90;99.90
25024;DHT22;13033;50.936;5.334;2023-07-29T04:17:25;18.80;99.90
25024;DHT22;13033;50.936;5.334;2023-07-29T04:19:50;18.90;99.90
25024;DHT22;13033;50.936;5.334;2023-07-29T04:22:16;19.00;99.90
25024;DHT22;13033;50.936;5.334;2023-07-29T04:24:42;19.20;99.90
25024;DHT22;13033;50.936;5.334;2023-07-29T04:27:08;19.40;99.90
25024;DHT22;13033;50.936;5.334;2023-07-29T04:29:34;19.30;99.90
25024;DHT22;13033;50.936;5.334;2023-07-29T04:32:01;19.30;99.90
25024;DHT22;13033;50.936;5.334;2023-07-29T04:34:27;19.10;99.90
25024;DHT22;13033;50.936;5.334;2023-07-29T04:36:53;19.20;99.90
25024;DHT22;13033;50.936;5.334;2023-07-29T04:39:18;19.30;99.90
25024;DHT22;13033;50.936;5.334;2023-07-29T04:41:44;19.00;99.90
25024;DHT22;13033;50.936;5.334;2023-07-29T04:44:09;19.00;99.90
25024;DHT22;13033;50.936;5.334;2023-07-29T04:46:36;19.00;99.90
25024;DHT22;13033;50.936;5.334;2023-07-29T04:49:02;19.00;99.90
25024;DHT22;13033;50.936;5.334;2023-07-29T04:51:28;18.90;99.90
25024;DHT22;13033;50.936;5.334;2023-07-29T04:53:53;19.00;99.90
25024;DHT22;13033;50.936;5.334;2023-07-29T04:56:19;18.70;99.90
25024;DHT22;13033;50.936;5.334;2023-07-29T04:58:45;18.80;99.90
25024;DHT22;13033;50.936;5.334;2023-07-29T05:01:10;18.80;99.90
25024;DHT22;13033;50.936;5.334;2023-07-29T05:03:36;18.70;99.90
25024;DHT22;13033;50.936;5.334;2023-07-29T05:06:02;18.70;99.90
25024;DHT22;13033;50.936;5.334;2023-07-29T05:08:28;18.60;99.90
25024;DHT22;13033;50.936;5.334;2023-07-29T05:10:54;18.60;99.90
25024;DHT22;13033;50.936;5.334;2023-07-29T05:13:21;18.50;99.90
25024;DHT22;13033;50.936;5.334;2023-07-29T05:15:48;18.60;99.90
25024;DHT22;13033;50.936;5.334;2023-07-29T05:18:15;18.60;99.90
25024;DHT22;13033;50.936;5.334;2023-07-29T05:20:41;18.80;99.90
25024;DHT22;13033;50.936;5.334;2023-07-29T05:23:06;18.70;99.90
25024;DHT22;13033;50.936;5.334;2023-07-29T05:25:32;18.80;99.90
25024;DHT22;13033;50.936;5.334;2023-07-29T05:28:03;18.70;99.90
25024;DHT22;13033;50.936;5.334;2023-07-29T05:30:30;18.80;99.90
25024;DHT22;13033;50.936;5.334;2023-07-29T05:32:59;18.90;99.90
25024;DHT22;13033;50.936;5.334;2023-07-29T05:35:25;19.10;99.90
25024;DHT22;13033;50.936;5.334;2023-07-29T05:37:51;19.20;99.90
25024;DHT22;13033;50.936;5.334;2023-07-29T05:40:16;19.20;99.90
25024;DHT22;13033;50.936;5.334;2023-07-29T05:42:42;19.20;99.90
25024;DHT22;13033;50.936;5.334;2023-07-29T05:45:09;19.30;99.90
25024;DHT22;13033;50.936;5.334;2023-07-29T05:47:36;19.20;99.90
25024;DHT22;13033;50.936;5.334;2023-07-29T05:50:02;19.20;99.90
25024;DHT22;13033;50.936;5.334;2023-07-29T05:52:30;19.10;99.90
25024;DHT22;13033;50.936;5.334;2023-07-29T05:54:56;19.30;99.90
25024;DHT22;13033;50.936;5.334;2023-07-29T05:57:21;19.20;99.90
25024;DHT22;13033;50.936;5.334;2023-07-29T05:59:47;19.10;99.90
25024;DHT22;13033;50.936;5.334;2023-07-29T06:02:12;19.20;99.90
25024;DHT22;13033;50.936;5.334;2023-07-29T06:04:38;19.20;99.90
25024;DHT22;13033;50.936;5.334;2023-07-29T06:07:04;19.10;99.90
25024;DHT22;13033;50.936;5.334;2023-07-29T06:09:30;19.40;99.90
25024;DHT22;13033;50.936;5.334;2023-07-29T06:12:04;19.40;99.90
25024;DHT22;13033;50.936;5.334;2023-07-29T06:14:30;19.40;99.90
25024;DHT22;13033;50.936;5.334;2023-07-29T06:16:56;19.60;99.90
25024;DHT22;13033;50.936;5.334;2023-07-29T06:19:21;19.50;99.90
25024;DHT22;13033;50.936;5.334;2023-07-29T06:21:47;19.50;99.90
25024;DHT22;13033;50.936;5.334;2023-07-29T06:24:13;19.60;99.90
25024;DHT22;13033;50.936;5.334;2023-07-29T06:26:39;19.80;99.90
25024;DHT22;13033;50.936;5.334;2023-07-29T06:29:05;19.70;99.90
25024;DHT22;13033;50.936;5.334;2023-07-29T06:31:30;19.70;99.90
25024;DHT22;13033;50.936;5.334;2023-07-29T06:33:58;19.50;99.90
25024;DHT22;13033;50.936;5.334;2023-07-29T06:36:23;19.60;99.90
25024;DHT22;13033;50.936;5.334;2023-07-29T06:38:49;19.80;99.90
25024;DHT22;13033;50.936;5.334;2023-07-29T06:41:15;19.80;99.90
25024;DHT22;13033;50.936;5.334;2023-07-29T06:43:40;19.70;99.90
25024;DHT22;13033;50.936;5.334;2023-07-29T06:46:06;19.80;99.90
25024;DHT22;13033;50.936;5.334;2023-07-29T06:48:31;19.90;99.90
25024;DHT22;13033;50.936;5.334;2023-07-29T06:50:57;19.90;99.90
25024;DHT22;13033;50.936;5.334;2023-07-29T06:53:26;20.10;99.90
25024;DHT22;13033;50.936;5.334;2023-07-29T06:55:52;20.10;99.90
25024;DHT22;13033;50.936;5.334;2023-07-29T06:58:18;20.20;99.90
25024;DHT22;13033;50.936;5.334;2023-07-29T07:00:43;20.20;99.90
25024;DHT22;13033;50.936;5.334;2023-07-29T07:03:09;20.50;99.90
25024;DHT22;13033;50.936;5.334;2023-07-29T07:05:35;20.50;99.90
25024;DHT22;13033;50.936;5.334;2023-07-29T07:08:00;20.70;99.90
25024;DHT22;13033;50.936;5.334;2023-07-29T07:10:26;20.70;99.90
25024;DHT22;13033;50.936;5.334;2023-07-29T07:12:52;20.80;99.90
25024;DHT22;13033;50.936;5.334;2023-07-29T07:15:17;21.20;99.90
25024;DHT22;13033;50.936;5.334;2023-07-29T07:17:43;21.20;99.90
25024;DHT22;13033;50.936;5.334;2023-07-29T07:20:09;21.40;99.90
25024;DHT22;13033;50.936;5.334;2023-07-29T07:22:35;21.60;99.90
25024;DHT22;13033;50.936;5.334;2023-07-29T07:25:00;21.80;99.90
25024;DHT22;13033;50.936;5.334;2023-07-29T07:27:26;21.80;99.90
25024;DHT22;13033;50.936;5.334;2023-07-29T07:29:52;21.70;99.90
25024;DHT22;13033;50.936;5.334;2023-07-29T07:32:17;21.80;99.90
25024;DHT22;13033;50.936;5.334;2023-07-29T07:34:43;21.90;99.90
25024;DHT22;13033;50.936;5.334;2023-07-29T07:37:09;21.60;99.90
25024;DHT22;13033;50.936;5.334;2023-07-29T07:39:34;21.80;99.90
25024;DHT22;13033;50.936;5.334;2023-07-29T07:42:00;22.00;99.90
25024;DHT22;13033;50.936;5.334;2023-07-29T07:44:25;21.90;99.90
25024;DHT22;13033;50.936;5.334;2023-07-29T07:46:52;22.20;99.90
25024;DHT22;13033;50.936;5.334;2023-07-29T07:49:18;22.30;99.90
25024;DHT22;13033;50.936;5.334;2023-07-29T07:51:44;22.20;99.90
25024;DHT22;13033;50.936;5.334;2023-07-29T07:54:10;22.40;99.90
25024;DHT22;13033;50.936;5.334;2023-07-29T07:56:35;22.40;99.90
25024;DHT22;13033;50.936;5.334;2023-07-29T07:59:01;22.30;99.90
25024;DHT22;13033;50.936;5.334;2023-07-29T08:01:27;22.30;99.90
25024;DHT22;13033;50.936;5.334;2023-07-29T08:03:52;22.30;99.90
25024;DHT22;13033;50.936;5.334;2023-07-29T08:06:18;22.30;99.90
25024;DHT22;13033;50.936;5.334;2023-07-29T08:08:44;22.10;99.90
25024;DHT22;13033;50.936;5.334;2023-07-29T08:11:09;22.40;99.90
25024;DHT22;13033;50.936;5.334;2023-07-29T08:13:35;22.40;99.90
25024;DHT22;13033;50.936;5.334;2023-07-29T08:16:00;22.40;99.90
25024;DHT22;13033;50.936;5.334;2023-07-29T08:18:26;22.50;99.90
25024;DHT22;13033;50.936;5.334;2023-07-29T08:20:56;22.50;99.90
25024;DHT22;13033;50.936;5.334;2023-07-29T08:23:25;22.70;99.90
25024;DHT22;13033;50.936;5.334;2023-07-29T08:25:55;22.80;99.90
25024;DHT22;13033;50.936;5.334;2023-07-29T08:28:24;22.80;99.90
25024;DHT22;13033;50.936;5.334;2023-07-29T08:30:50;23.10;99.90
25024;DHT22;13033;50.936;5.334;2023-07-29T08:33:16;23.20;99.90
25024;DHT22;13033;50.936;5.334;2023-07-29T08:35:41;23.10;99.90
25024;DHT22;13033;50.936;5.334;2023-07-29T08:38:07;23.00;99.90
25024;DHT22;13033;50.936;5.334;2023-07-29T08:40:34;22.80;99.90
25024;DHT22;13033;50.936;5.334;2023-07-29T08:43:04;22.80;99.90
25024;DHT22;13033;50.936;5.334;2023-07-29T08:45:34;22.80;99.90
25024;DHT22;13033;50.936;5.334;2023-07-29T08:48:02;22.80;99.90
25024;DHT22;13033;50.936;5.334;2023-07-29T08:50:32;22.90;99.90
25024;DHT22;13033;50.936;5.334;2023-07-29T08:52:59;22.90;99.90
25024;DHT22;13033;50.936;5.334;2023-07-29T08:55:26;23.00;99.90
25024;DHT22;13033;50.936;5.334;2023-07-29T08:57:53;23.10;99.90
25024;DHT22;13033;50.936;5.334;2023-07-29T09:00:19;23.10;99.90
25024;DHT22;13033;50.936;5.334;2023-07-29T09:02:45;23.30;99.90
25024;DHT22;13033;50.936;5.334;2023-07-29T09:05:11;23.30;99.90
25024;DHT22;13033;50.936;5.334;2023-07-29T09:07:37;22.90;99.90
25024;DHT22;13033;50.936;5.334;2023-07-29T09:10:04;23.10;99.90
25024;DHT22;13033;50.936;5.334;2023-07-29T09:12:29;23.20;99.90
25024;DHT22;13033;50.936;5.334;2023-07-29T09:14:55;23.20;99.90
25024;DHT22;13033;50.936;5.334;2023-07-29T09:17:21;23.50;99.90
25024;DHT22;13033;50.936;5.334;2023-07-29T09:19:50;23.50;99.90
25024;DHT22;13033;50.936;5.334;2023-07-29T09:22:20;23.50;99.90
25024;DHT22;13033;50.936;5.334;2023-07-29T09:24:46;23.50;99.90
25024;DHT22;13033;50.936;5.334;2023-07-29T09:27:28;23.70;99.90
25024;DHT22;13033;50.936;5.334;2023-07-29T09:29:57;23.60;99.90
25024;DHT22;13033;50.936;5.334;2023-07-29T09:32:24;23.30;99.90
25024;DHT22;13033;50.936;5.334;2023-07-29T09:34:51;23.40;99.90
25024;DHT22;13033;50.936;5.334;2023-07-29T09:37:23;23.20;99.90
25024;DHT22;13033;50.936;5.334;2023-07-29T09:39:49;23.20;99.90
25024;DHT22;13033;50.936;5.334;2023-07-29T09:42:22;23.20;99.90
25024;DHT22;13033;50.936;5.334;2023-07-29T09:44:51;23.40;99.90
25024;DHT22;13033;50.936;5.334;2023-07-29T09:47:21;23.20;99.90
25024;DHT22;13033;50.936;5.334;2023-07-29T09:49:47;23.20;99.90
25024;DHT22;13033;50.936;5.334;2023-07-29T09:52:15;23.20;99.90
25024;DHT22;13033;50.936;5.334;2023-07-29T09:54:43;23.10;99.90
25024;DHT22;13033;50.936;5.334;2023-07-29T09:57:10;23.20;99.90
25024;DHT22;13033;50.936;5.334;2023-07-29T09:59:36;23.50;99.90
25024;DHT22;13033;50.936;5.334;2023-07-29T10:02:02;23.80;99.90
25024;DHT22;13033;50.936;5.334;2023-07-29T10:04:29;24.10;99.90
25024;DHT22;13033;50.936;5.334;2023-07-29T10:06:56;24.10;99.90
25024;DHT22;13033;50.936;5.334;2023-07-29T10:09:23;24.20;99.90
25024;DHT22;13033;50.936;5.334;2023-07-29T10:11:49;24.40;99.90
25024;DHT22;13033;50.936;5.334;2023-07-29T10:14:16;24.60;99.90
25024;DHT22;13033;50.936;5.334;2023-07-29T10:16:43;24.70;99.90
25024;DHT22;13033;50.936;5.334;2023-07-29T10:19:12;24.90;99.90
25024;DHT22;13033;50.936;5.334;2023-07-29T10:21:42;24.90;99.90
25024;DHT22;13033;50.936;5.334;2023-07-29T10:24:19;24.60;99.90
25024;DHT22;13033;50.936;5.334;2023-07-29T10:26:49;24.70;99.90
25024;DHT22;13033;50.936;5.334;2023-07-29T10:29:19;24.80;99.90
25024;DHT22;13033;50.936;5.334;2023-07-29T10:31:47;24.80;99.90
25024;DHT22;13033;50.936;5.334;2023-07-29T10:34:13;25.10;99.90
25024;DHT22;13033;50.936;5.334;2023-07-29T10:36:40;25.40;99.90
25024;DHT22;13033;50.936;5.334;2023-07-29T10:39:07;25.50;99.90
25024;DHT22;13033;50.936;5.334;2023-07-29T10:41:58;25.70;99.90
25024;DHT22;13033;50.936;5.334;2023-07-29T10:47:27;26.30;99.90
25024;DHT22;13033;50.936;5.334;2023-07-29T10:49:57;26.00;99.90
25024;DHT22;13033;50.936;5.334;2023-07-29T10:55:00;25.10;99.90
25024;DHT22;13033;50.936;5.334;2023-07-29T10:57:34;24.90;99.90
25024;DHT22;13033;50.936;5.334;2023-07-29T11:00:01;24.90;99.90
25024;DHT22;13033;50.936;5.334;2023-07-29T11:02:31;24.70;99.90
25024;DHT22;13033;50.936;5.334;2023-07-29T11:04:58;24.40;99.90
25024;DHT22;13033;50.936;5.334;2023-07-29T11:07:26;24.10;99.90
25024;DHT22;13033;50.936;5.334;2023-07-29T11:10:00;23.70;99.90
25024;DHT22;13033;50.936;5.334;2023-07-29T11:12:33;23.40;99.90
25024;DHT22;13033;50.936;5.334;2023-07-29T11:15:13;23.50;99.90
25024;DHT22;13033;50.936;5.334;2023-07-29T11:17:44;23.50;99.90
25024;DHT22;13033;50.936;5.334;2023-07-29T11:20:10;23.40;99.90
25024;DHT22;13033;50.936;5.334;2023-07-29T11:22:37;23.20;99.90
25024;DHT22;13033;50.936;5.334;2023-07-29T11:25:04;23.10;99.90
25024;DHT22;13033;50.936;5.334;2023-07-29T11:27:31;23.20;99.90
25024;DHT22;13033;50.936;5.334;2023-07-29T11:29:58;23.00;99.90
25024;DHT22;13033;50.936;5.334;2023-07-29T11:32:24;23.00;99.90
25024;DHT22;13033;50.936;5.334;2023-07-29T11:34:50;22.70;99.90
25024;DHT22;13033;50.936;5.334;2023-07-29T11:37:16;22.30;99.90
25024;DHT22;13033;50.936;5.334;2023-07-29T11:39:44;22.10;99.90
25024;DHT22;13033;50.936;5.334;2023-07-29T11:42:11;22.10;99.90
25024;DHT22;13033;50.936;5.334;2023-07-29T11:44:37;21.90;99.90
25024;DHT22;13033;50.936;5.334;2023-07-29T11:47:11;21.90;99.90
25024;DHT22;13033;50.936;5.334;2023-07-29T11:49:39;21.80;99.90
25024;DHT22;13033;50.936;5.334;2023-07-29T11:52:10;22.00;99.90
25024;DHT22;13033;50.936;5.334;2023-07-29T11:54:38;22.00;99.90
25024;DHT22;13033;50.936;5.334;2023-07-29T11:57:07;22.00;99.90
25024;DHT22;13033;50.936;5.334;2023-07-29T11:59:37;22.00;99.90
25024;DHT22;13033;50.936;5.334;2023-07-29T12:02:10;22.30;99.90
25024;DHT22;13033;50.936;5.334;2023-07-29T12:04:37;22.10;99.90
25024;DHT22;13033;50.936;5.334;2023-07-29T12:07:03;21.90;99.90
25024;DHT22;13033;50.936;5.334;2023-07-29T12:09:29;22.10;99.90
25024;DHT22;13033;50.936;5.334;2023-07-29T12:11:56;22.00;99.90
25024;DHT22;13033;50.936;5.334;2023-07-29T12:14:22;21.80;99.90
25024;DHT22;13033;50.936;5.334;2023-07-29T12:16:51;22.00;99.90
25024;DHT22;13033;50.936;5.334;2023-07-29T12:19:18;22.10;99.90
25024;DHT22;13033;50.936;5.334;2023-07-29T12:21:44;22.10;99.90
25024;DHT22;13033;50.936;5.334;2023-07-29T12:24:13;22.10;99.90
25024;DHT22;13033;50.936;5.334;2023-07-29T12:26:42;21.90;99.90
25024;DHT22;13033;50.936;5.334;2023-07-29T12:29:15;21.60;99.90
25024;DHT22;13033;50.936;5.334;2023-07-29T12:31:41;21.60;99.90
25024;DHT22;13033;50.936;5.334;2023-07-29T12:34:07;21.40;99.90
25024;DHT22;13033;50.936;5.334;2023-07-29T12:36:47;21.00;99.90
25024;DHT22;13033;50.936;5.334;2023-07-29T12:39:21;20.90;99.90
25024;DHT22;13033;50.936;5.334;2023-07-29T12:41:51;20.70;99.90
25024;DHT22;13033;50.936;5.334;2023-07-29T12:44:16;20.70;99.90
25024;DHT22;13033;50.936;5.334;2023-07-29T12:46:42;20.70;99.90
25024;DHT22;13033;50.936;5.334;2023-07-29T12:49:08;20.50;99.90
25024;DHT22;13033;50.936;5.334;2023-07-29T12:51:34;20.70;99.90
25024;DHT22;13033;50.936;5.334;2023-07-29T12:54:00;20.70;99.90
25024;DHT22;13033;50.936;5.334;2023-07-29T12:56:25;21.00;99.90
25024;DHT22;13033;50.936;5.334;2023-07-29T12:58:52;21.10;99.90
25024;DHT22;13033;50.936;5.334;2023-07-29T13:01:17;21.50;99.90
25024;DHT22;13033;50.936;5.334;2023-07-29T13:03:44;21.60;99.90
25024;DHT22;13033;50.936;5.334;2023-07-29T13:06:09;21.90;99.90
25024;DHT22;13033;50.936;5.334;2023-07-29T13:08:35;21.90;99.90
25024;DHT22;13033;50.936;5.334;2023-07-29T13:11:01;21.80;99.90
25024;DHT22;13033;50.936;5.334;2023-07-29T13:13:26;21.90;99.90
25024;DHT22;13033;50.936;5.334;2023-07-29T13:15:52;22.20;99.90
25024;DHT22;13033;50.936;5.334;2023-07-29T13:18:18;22.40;99.90
25024;DHT22;13033;50.936;5.334;2023-07-29T13:20:44;22.50;99.90
25024;DHT22;13033;50.936;5.334;2023-07-29T13:23:09;22.60;99.90
25024;DHT22;13033;50.936;5.334;2023-07-29T13:25:35;22.50;99.90
25024;DHT22;13033;50.936;5.334;2023-07-29T13:28:00;22.50;99.90
25024;DHT22;13033;50.936;5.334;2023-07-29T13:30:26;22.20;99.90
25024;DHT22;13033;50.936;5.334;2023-07-29T13:32:52;22.20;99.90
25024;DHT22;13033;50.936;5.334;2023-07-29T13:35:17;22.20;99.90
25024;DHT22;13033;50.936;5.334;2023-07-29T13:37:43;22.20;99.90
25024;DHT22;13033;50.936;5.334;2023-07-29T13:40:09;22.10;99.90
25024;DHT22;13033;50.936;5.334;2023-07-29T13:42:34;21.90;99.90
25024;DHT22;13033;50.936;5.334;2023-07-29T13:45:01;21.80;99.90
25024;DHT22;13033;50.936;5.334;2023-07-29T13:47:27;21.40;99.90
25024;DHT22;13033;50.936;5.334;2023-07-29T13:49:53;21.20;99.90
25024;DHT22;13033;50.936;5.334;2023-07-29T13:52:18;21.30;99.90
25024;DHT22;13033;50.936;5.334;2023-07-29T13:54:44;21.50;99.90
25024;DHT22;13033;50.936;5.334;2023-07-29T13:57:09;21.90;99.90
25024;DHT22;13033;50.936;5.334;2023-07-29T13:59:36;22.50;99.90
25024;DHT22;13033;50.936;5.334;2023-07-29T14:02:05;23.50;99.90
25024;DHT22;13033;50.936;5.334;2023-07-29T14:04:31;24.00;99.90
25024;DHT22;13033;50.936;5.334;2023-07-29T14:06:57;24.60;99.90
25024;DHT22;13033;50.936;5.334;2023-07-29T14:09:23;24.60;99.90
25024;DHT22;13033;50.936;5.334;2023-07-29T14:11:48;24.60;99.90
25024;DHT22;13033;50.936;5.334;2023-07-29T14:14:15;25.10;99.90
25024;DHT22;13033;50.936;5.334;2023-07-29T14:16:40;25.40;99.90
25024;DHT22;13033;50.936;5.334;2023-07-29T14:19:06;25.50;99.90
25024;DHT22;13033;50.936;5.334;2023-07-29T14:21:32;26.10;99.90
25024;DHT22;13033;50.936;5.334;2023-07-29T14:23:57;25.90;99.90
25024;DHT22;13033;50.936;5.334;2023-07-29T14:26:23;25.40;99.90
25024;DHT22;13033;50.936;5.334;2023-07-29T14:28:49;25.50;99.90
25024;DHT22;13033;50.936;5.334;2023-07-29T14:31:16;25.10;99.90
25024;DHT22;13033;50.936;5.334;2023-07-29T14:33:43;24.90;99.90
25024;DHT22;13033;50.936;5.334;2023-07-29T14:36:09;25.20;99.90
25024;DHT22;13033;50.936;5.334;2023-07-29T14:38:35;25.70;99.90
25024;DHT22;13033;50.936;5.334;2023-07-29T14:41:01;25.80;99.90
25024;DHT22;13033;50.936;5.334;2023-07-29T14:43:26;25.80;99.90
25024;DHT22;13033;50.936;5.334;2023-07-29T14:45:52;25.90;99.90
25024;DHT22;13033;50.936;5.334;2023-07-29T14:48:18;26.60;99.90
25024;DHT22;13033;50.936;5.334;2023-07-29T14:50:43;27.10;99.90
25024;DHT22;13033;50.936;5.334;2023-07-29T14:53:10;27.20;99.90
25024;DHT22;13033;50.936;5.334;2023-07-29T14:55:37;27.20;99.90
25024;DHT22;13033;50.936;5.334;2023-07-29T14:58:02;26.50;99.90
25024;DHT22;13033;50.936;5.334;2023-07-29T15:00:28;25.90;99.90
25024;DHT22;13033;50.936;5.334;2023-07-29T15:02:54;25.30;99.90
25024;DHT22;13033;50.936;5.334;2023-07-29T15:05:19;24.90;99.90
25024;DHT22;13033;50.936;5.334;2023-07-29T15:07:45;24.70;99.90
25024;DHT22;13033;50.936;5.334;2023-07-29T15:10:14;24.50;99.90
25024;DHT22;13033;50.936;5.334;2023-07-29T15:12:41;24.30;99.90
25024;DHT22;13033;50.936;5.334;2023-07-29T15:15:07;24.20;99.90
25024;DHT22;13033;50.936;5.334;2023-07-29T15:17:33;23.90;99.90
25024;DHT22;13033;50.936;5.334;2023-07-29T15:19:59;23.90;99.90
25024;DHT22;13033;50.936;5.334;2023-07-29T15:22:24;23.90;99.90
25024;DHT22;13033;50.936;5.334;2023-07-29T15:24:50;24.20;99.90
25024;DHT22;13033;50.936;5.334;2023-07-29T15:27:15;24.70;99.90
25024;DHT22;13033;50.936;5.334;2023-07-29T15:29:41;25.40;99.90
25024;DHT22;13033;50.936;5.334;2023-07-29T15:32:07;25.60;99.90
25024;DHT22;13033;50.936;5.334;2023-07-29T15:34:33;25.50;99.90
25024;DHT22;13033;50.936;5.334;2023-07-29T15:36:59;25.30;99.90
25024;DHT22;13033;50.936;5.334;2023-07-29T15:39:25;24.90;99.90